sensor_id;sensor_type;location;lat;lon;timestamp;pressure;altitude;pressure_sealevel;temperature;humidity
56668;BME280;42542;48.360;10.958;2023-12-29T00:00:33;96260.97;;;7.82;77.95
56668;BME280;42542;48.360;10.958;2023-12-29T00:03:36;96264.63;;;7.81;78.25
56668;BME280;42542;48.360;10.958;2023-12-29T00:06:39;96262.41;;;7.76;78.29
56668;BME280;42542;48.360;10.958;2023-12-29T00:09:58;96261.28;;;7.69;78.60
56668;BME280;42542;48.360;10.958;2023-12-29T00:13:00;96261.69;;;7.65;79.05
56668;BME280;42542;48.360;10.958;2023-12-29T00:16:02;96254.59;;;7.56;78.69
56668;BME280;42542;48.360;10.958;2023-12-29T00:19:04;96255.84;;;7.52;79.30
56668;BME280;42542;48.360;10.958;2023-12-29T00:22:07;96261.47;;;7.49;79.48
56668;BME280;42542;48.360;10.958;2023-12-29T00:25:09;96248.72;;;7.42;80.20
56668;BME280;42542;48.360;10.958;2023-12-29T00:28:11;96248.19;;;7.39;80.27
56668;BME280;42542;48.360;10.958;2023-12-29T00:31:16;96247.47;;;7.37;81.09
56668;BME280;42542;48.360;10.958;2023-12-29T00:34:18;96246.94;;;7.33;81.59
56668;BME280;42542;48.360;10.958;2023-12-29T00:37:20;96245.66;;;7.28;81.53
56668;BME280;42542;48.360;10.958;2023-12-29T00:40:22;96232.78;;;7.23;82.01
56668;BME280;42542;48.360;10.958;2023-12-29T00:43:24;96231.97;;;7.13;82.48
56668;BME280;42542;48.360;10.958;2023-12-29T00:46:28;96233.63;;;7.14;83.02
56668;BME280;42542;48.360;10.958;2023-12-29T00:49:30;96238.53;;;7.09;83.67
56668;BME280;42542;48.360;10.958;2023-12-29T00:52:32;96237.81;;;7.07;83.32
56668;BME280;42542;48.360;10.958;2023-12-29T00:55:34;96231.97;;;7.03;83.47
56668;BME280;42542;48.360;10.958;2023-12-29T00:58:36;96233.38;;;6.98;83.70
56668;BME280;42542;48.360;10.958;2023-12-29T01:01:38;96240.06;;;7.02;84.23
56668;BME280;42542;48.360;10.958;2023-12-29T01:04:42;96230.00;;;6.96;83.96
56668;BME280;42542;48.360;10.958;2023-12-29T01:07:44;96232.09;;;6.92;84.57
56668;BME280;42542;48.360;10.958;2023-12-29T01:10:46;96227.59;;;6.93;84.92
56668;BME280;42542;48.360;10.958;2023-12-29T01:13:47;96228.44;;;6.93;85.48
56668;BME280;42542;48.360;10.958;2023-12-29T01:16:51;96228.16;;;6.87;85.83
56668;BME280;42542;48.360;10.958;2023-12-29T01:19:56;96239.38;;;6.90;86.19
56668;BME280;42542;48.360;10.958;2023-12-29T01:22:59;96236.97;;;6.87;86.15
56668;BME280;42542;48.360;10.958;2023-12-29T01:26:01;96240.50;;;6.97;86.33
56668;BME280;42542;48.360;10.958;2023-12-29T01:29:05;96229.88;;;6.97;86.77
56668;BME280;42542;48.360;10.958;2023-12-29T01:32:07;96230.00;;;6.96;86.43
56668;BME280;42542;48.360;10.958;2023-12-29T01:35:10;96234.03;;;7.00;86.08
56668;BME280;42542;48.360;10.958;2023-12-29T01:38:11;96224.69;;;7.05;86.01
56668;BME280;42542;48.360;10.958;2023-12-29T01:41:14;96228.34;;;7.04;85.79
56668;BME280;42542;48.360;10.958;2023-12-29T01:44:21;96241.47;;;7.06;85.78
56668;BME280;42542;48.360;10.958;2023-12-29T01:47:23;96243.31;;;7.05;85.42
56668;BME280;42542;48.360;10.958;2023-12-29T01:50:25;96242.72;;;7.02;85.15
56668;BME280;42542;48.360;10.958;2023-12-29T01:53:27;96237.16;;;7.05;84.82
56668;BME280;42542;48.360;10.958;2023-12-29T01:56:44;96222.44;;;7.01;84.71
56668;BME280;42542;48.360;10.958;2023-12-29T01:59:46;96238.25;;;7.02;84.45
56668;BME280;42542;48.360;10.958;2023-12-29T02:02:50;96231.97;;;7.03;84.31
56668;BME280;42542;48.360;10.958;2023-12-29T02:05:54;96217.44;;;6.98;83.92
56668;BME280;42542;48.360;10.958;2023-12-29T02:08:58;96221.91;;;6.97;83.73
56668;BME280;42542;48.360;10.958;2023-12-29T02:12:00;96197.13;;;6.87;84.13
56668;BME280;42542;48.360;10.958;2023-12-29T02:15:04;96212.81;;;6.90;84.12
56668;BME280;42542;48.360;10.958;2023-12-29T02:18:10;96198.41;;;6.83;84.23
56668;BME280;42542;48.360;10.958;2023-12-29T02:21:17;96197.56;;;6.83;84.02
56668;BME280;42542;48.360;10.958;2023-12-29T02:24:18;96199.38;;;6.82;84.17
56668;BME280;42542;48.360;10.958;2023-12-29T02:31:02;96195.75;;;6.83;83.98
56668;BME280;42542;48.360;10.958;2023-12-29T02:34:09;96199.38;;;6.82;83.96
56668;BME280;42542;48.360;10.958;2023-12-29T02:37:14;96209.72;;;6.85;83.23
56668;BME280;42542;48.360;10.958;2023-12-29T02:40:17;96192.66;;;6.88;82.87
56668;BME280;42542;48.360;10.958;2023-12-29T02:43:19;96199.34;;;6.92;81.99
56668;BME280;42542;48.360;10.958;2023-12-29T02:46:21;96195.31;;;6.97;82.13
56668;BME280;42542;48.360;10.958;2023-12-29T02:49:26;96185.81;;;6.95;81.47
56668;BME280;42542;48.360;10.958;2023-12-29T02:52:28;96189.84;;;6.99;81.21
56668;BME280;42542;48.360;10.958;2023-12-29T02:55:30;96190.97;;;6.96;81.65
56668;BME280;42542;48.360;10.958;2023-12-29T02:58:32;96177.84;;;6.95;80.99
56668;BME280;42542;48.360;10.958;2023-12-29T03:01:34;96167.91;;;6.97;81.19
56668;BME280;42542;48.360;10.958;2023-12-29T03:04:36;96162.72;;;6.95;80.87
56668;BME280;42542;48.360;10.958;2023-12-29T03:07:39;96173.34;;;6.95;80.61
56668;BME280;42542;48.360;10.958;2023-12-29T03:10:42;96172.94;;;6.90;80.66
56668;BME280;42542;48.360;10.958;2023-12-29T03:13:46;96171.81;;;6.93;80.36
56668;BME280;42542;48.360;10.958;2023-12-29T03:16:48;96167.78;;;6.89;80.71
56668;BME280;42542;48.360;10.958;2023-12-29T03:19:50;96159.22;;;6.85;80.54
56668;BME280;42542;48.360;10.958;2023-12-29T03:22:52;96158.81;;;6.90;80.21
56668;BME280;42542;48.360;10.958;2023-12-29T03:25:53;96164.69;;;6.93;80.04
56668;BME280;42542;48.360;10.958;2023-12-29T03:28:56;96168.19;;;6.94;79.67
56668;BME280;42542;48.360;10.958;2023-12-29T03:32:00;96164.69;;;6.93;79.93
56668;BME280;42542;48.360;10.958;2023-12-29T03:35:01;96157.53;;;6.94;79.27
56668;BME280;42542;48.360;10.958;2023-12-29T03:38:04;96151.25;;;6.95;79.35
56668;BME280;42542;48.360;10.958;2023-12-29T03:41:06;96149.00;;;7.00;79.41
56668;BME280;42542;48.360;10.958;2023-12-29T03:44:08;96150.41;;;7.04;79.07
56668;BME280;42542;48.360;10.958;2023-12-29T03:47:10;96139.78;;;7.04;79.19
56668;BME280;42542;48.360;10.958;2023-12-29T03:50:12;96142.00;;;7.09;79.11
56668;BME280;42542;48.360;10.958;2023-12-29T03:53:14;96134.88;;;7.09;78.49
56668;BME280;42542;48.360;10.958;2023-12-29T03:56:18;96129.69;;;7.07;78.60
56668;BME280;42542;48.360;10.958;2023-12-29T03:59:20;96135.72;;;7.10;78.42
56668;BME280;42542;48.360;10.958;2023-12-29T04:02:22;96134.88;;;7.09;78.50
56668;BME280;42542;48.360;10.958;2023-12-29T04:05:24;96134.16;;;7.07;78.27
56668;BME280;42542;48.360;10.958;2023-12-29T04:08:26;96129.69;;;7.07;78.29
56668;BME280;42542;48.360;10.958;2023-12-29T04:11:28;96132.50;;;7.06;77.91
56668;BME280;42542;48.360;10.958;2023-12-29T04:14:30;96131.69;;;7.05;77.67
56668;BME280;42542;48.360;10.958;2023-12-29T04:17:33;96130.66;;;7.06;77.40
56668;BME280;42542;48.360;10.958;2023-12-29T04:20:34;96137.66;;;7.07;77.85
56668;BME280;42542;48.360;10.958;2023-12-29T04:23:37;96131.50;;;7.07;77.42
56668;BME280;42542;48.360;10.958;2023-12-29T04:26:39;96134.75;;;7.11;77.01
56668;BME280;42542;48.360;10.958;2023-12-29T04:29:41;96123.53;;;7.07;77.11
56668;BME280;42542;48.360;10.958;2023-12-29T04:32:43;96124.38;;;7.07;77.35
56668;BME280;42542;48.360;10.958;2023-12-29T04:35:45;96122.56;;;7.08;77.09
56668;BME280;42542;48.360;10.958;2023-12-29T04:38:47;96127.59;;;7.11;76.82
56668;BME280;42542;48.360;10.958;2023-12-29T04:41:48;96120.75;;;7.09;76.33
56668;BME280;42542;48.360;10.958;2023-12-29T04:44:50;96118.94;;;7.09;76.05
56668;BME280;42542;48.360;10.958;2023-12-29T04:47:53;96130.66;;;7.16;76.17
56668;BME280;42542;48.360;10.958;2023-12-29T04:50:55;96137.53;;;7.19;75.53
56668;BME280;42542;48.360;10.958;2023-12-29T04:53:58;96132.75;;;7.22;75.43
56668;BME280;42542;48.360;10.958;2023-12-29T04:56:59;96129.94;;;7.24;75.24
56668;BME280;42542;48.360;10.958;2023-12-29T05:00:02;96131.19;;;7.29;74.65
56668;BME280;42542;48.360;10.958;2023-12-29T05:03:04;96124.75;;;7.32;74.39
56668;BME280;42542;48.360;10.958;2023-12-29T05:06:07;96131.44;;;7.36;74.71
56668;BME280;42542;48.360;10.958;2023-12-29T05:09:08;96129.50;;;7.38;74.79
56668;BME280;42542;48.360;10.958;2023-12-29T05:12:10;96128.38;;;7.40;74.17
56668;BME280;42542;48.360;10.958;2023-12-29T05:15:12;96119.84;;;7.37;74.57
56668;BME280;42542;48.360;10.958;2023-12-29T05:18:14;96125.41;;;7.43;74.69
56668;BME280;42542;48.360;10.958;2023-12-29T05:21:19;96111.13;;;7.44;74.54
56668;BME280;42542;48.360;10.958;2023-12-29T05:24:22;96124.00;;;7.49;74.99
56668;BME280;42542;48.360;10.958;2023-12-29T05:27:24;96128.50;;;7.49;75.04
56668;BME280;42542;48.360;10.958;2023-12-29T05:30:27;96135.03;;;7.54;75.21
56668;BME280;42542;48.360;10.958;2023-12-29T05:33:30;96135.56;;;7.58;74.83
56668;BME280;42542;48.360;10.958;2023-12-29T05:36:35;96137.97;;;7.61;75.09
56668;BME280;42542;48.360;10.958;2023-12-29T05:39:37;96142.16;;;7.63;75.23
56668;BME280;42542;48.360;10.958;2023-12-29T05:42:39;96154.19;;;7.67;74.82
56668;BME280;42542;48.360;10.958;2023-12-29T05:45:41;96164.38;;;7.72;74.78
56668;BME280;42542;48.360;10.958;2023-12-29T05:48:43;96160.44;;;7.76;74.82
56668;BME280;42542;48.360;10.958;2023-12-29T05:51:45;96168.97;;;7.79;74.26
56668;BME280;42542;48.360;10.958;2023-12-29T05:54:48;96153.16;;;7.78;74.15
56668;BME280;42542;48.360;10.958;2023-12-29T05:57:51;96169.91;;;7.88;73.62
56668;BME280;42542;48.360;10.958;2023-12-29T06:00:54;96169.31;;;7.94;74.18
56668;BME280;42542;48.360;10.958;2023-12-29T06:03:57;96171.00;;;7.95;73.53
56668;BME280;42542;48.360;10.958;2023-12-29T06:06:59;96167.88;;;8.00;72.86
56668;BME280;42542;48.360;10.958;2023-12-29T06:10:02;96175.44;;;8.04;73.62
56668;BME280;42542;48.360;10.958;2023-12-29T06:13:04;96171.25;;;8.02;73.62
56668;BME280;42542;48.360;10.958;2023-12-29T06:16:06;96180.47;;;8.07;73.27
56668;BME280;42542;48.360;10.958;2023-12-29T06:19:09;96173.50;;;8.06;73.20
56668;BME280;42542;48.360;10.958;2023-12-29T06:22:11;96169.69;;;8.09;72.71
56668;BME280;42542;48.360;10.958;2023-12-29T06:25:13;96176.81;;;8.08;72.91
56668;BME280;42542;48.360;10.958;2023-12-29T06:28:16;96169.53;;;8.10;72.43
56668;BME280;42542;48.360;10.958;2023-12-29T06:31:19;96163.66;;;8.07;72.49
56668;BME280;42542;48.360;10.958;2023-12-29T06:34:21;96166.72;;;8.12;73.12
56668;BME280;42542;48.360;10.958;2023-12-29T06:37:23;96155.25;;;8.11;73.05
56668;BME280;42542;48.360;10.958;2023-12-29T06:40:25;96167.56;;;8.12;73.52
56668;BME280;42542;48.360;10.958;2023-12-29T06:43:27;96172.06;;;8.12;73.38
56668;BME280;42542;48.360;10.958;2023-12-29T06:46:29;96173.72;;;8.13;73.32
56668;BME280;42542;48.360;10.958;2023-12-29T06:49:31;96156.69;;;8.06;73.85
56668;BME280;42542;48.360;10.958;2023-12-29T06:52:33;96169.25;;;8.13;73.79
56668;BME280;42542;48.360;10.958;2023-12-29T06:55:36;96163.94;;;8.13;74.05
56668;BME280;42542;48.360;10.958;2023-12-29T06:58:39;96175.94;;;8.17;74.17
56668;BME280;42542;48.360;10.958;2023-12-29T07:01:40;96167.13;;;8.17;74.80
56668;BME280;42542;48.360;10.958;2023-12-29T07:04:43;96178.47;;;8.19;74.74
56668;BME280;42542;48.360;10.958;2023-12-29T07:07:44;96172.75;;;8.14;74.64
56668;BME280;42542;48.360;10.958;2023-12-29T07:10:48;96182.81;;;8.20;75.40
56668;BME280;42542;48.360;10.958;2023-12-29T07:13:51;96182.94;;;8.18;75.76
56668;BME280;42542;48.360;10.958;2023-12-29T07:16:54;96182.09;;;8.18;75.60
56668;BME280;42542;48.360;10.958;2023-12-29T07:19:56;96179.91;;;8.13;77.08
56668;BME280;42542;48.360;10.958;2023-12-29T07:22:58;96176.78;;;8.18;76.53
56668;BME280;42542;48.360;10.958;2023-12-29T07:26:01;96178.75;;;8.16;77.48
56668;BME280;42542;48.360;10.958;2023-12-29T07:29:03;96189.13;;;8.19;78.10
56668;BME280;42542;48.360;10.958;2023-12-29T07:32:05;96195.66;;;8.24;78.56
56668;BME280;42542;48.360;10.958;2023-12-29T07:35:08;96200.28;;;8.22;79.38
56668;BME280;42542;48.360;10.958;2023-12-29T07:38:10;96201.97;;;8.23;79.20
56668;BME280;42542;48.360;10.958;2023-12-29T07:41:12;96193.16;;;8.23;80.39
56668;BME280;42542;48.360;10.958;2023-12-29T07:44:14;96200.00;;;8.26;80.68
56668;BME280;42542;48.360;10.958;2023-12-29T07:47:17;96191.47;;;8.22;80.85
56668;BME280;42542;48.360;10.958;2023-12-29T07:50:18;96205.47;;;8.24;81.48
56668;BME280;42542;48.360;10.958;2023-12-29T07:53:21;96201.69;;;8.27;81.06
56668;BME280;42542;48.360;10.958;2023-12-29T07:56:23;96195.66;;;8.24;81.11
56668;BME280;42542;48.360;10.958;2023-12-29T07:59:25;96201.97;;;8.23;81.45
56668;BME280;42542;48.360;10.958;2023-12-29T08:02:28;96198.47;;;8.23;81.95
56668;BME280;42542;48.360;10.958;2023-12-29T08:05:30;96194.44;;;8.19;82.05
56668;BME280;42542;48.360;10.958;2023-12-29T08:08:31;96182.00;;;8.10;82.43
56668;BME280;42542;48.360;10.958;2023-12-29T08:11:33;96196.25;;;8.18;81.96
56668;BME280;42542;48.360;10.958;2023-12-29T08:14:35;96189.53;;;8.14;82.64
56668;BME280;42542;48.360;10.958;2023-12-29T08:17:37;96195.56;;;8.16;83.10
56668;BME280;42542;48.360;10.958;2023-12-29T08:20:39;96180.75;;;8.14;83.01
56668;BME280;42542;48.360;10.958;2023-12-29T08:23:41;96184.06;;;8.16;83.56
56668;BME280;42542;48.360;10.958;2023-12-29T08:26:45;96183.22;;;8.15;83.24
56668;BME280;42542;48.360;10.958;2023-12-29T08:29:47;96185.59;;;8.18;83.63
56668;BME280;42542;48.360;10.958;2023-12-29T08:32:49;96189.13;;;8.19;83.94
56668;BME280;42542;48.360;10.958;2023-12-29T08:35:51;96187.16;;;8.21;84.36
56668;BME280;42542;48.360;10.958;2023-12-29T08:38:52;96199.16;;;8.25;84.00
56668;BME280;42542;48.360;10.958;2023-12-29T08:41:54;96204.34;;;8.27;84.21
56668;BME280;42542;48.360;10.958;2023-12-29T08:44:58;96202.34;;;8.29;84.25
56668;BME280;42542;48.360;10.958;2023-12-29T08:48:01;96208.28;;;8.32;84.42
56668;BME280;42542;48.360;10.958;2023-12-29T08:51:04;96208.66;;;8.37;84.40
56668;BME280;42542;48.360;10.958;2023-12-29T08:54:08;96200.38;;;8.40;84.47
56668;BME280;42542;48.360;10.958;2023-12-29T08:57:10;96206.94;;;8.46;84.23
56668;BME280;42542;48.360;10.958;2023-12-29T09:00:12;96195.75;;;8.42;83.75
56668;BME280;42542;48.360;10.958;2023-12-29T09:03:14;96195.00;;;8.50;83.75
56668;BME280;42542;48.360;10.958;2023-12-29T09:06:16;96191.50;;;8.49;84.13
56668;BME280;42542;48.360;10.958;2023-12-29T09:09:17;96187.69;;;8.52;83.74
56668;BME280;42542;48.360;10.958;2023-12-29T09:12:19;96194.41;;;8.56;84.39
56668;BME280;42542;48.360;10.958;2023-12-29T09:15:21;96184.41;;;8.58;84.45
56668;BME280;42542;48.360;10.958;2023-12-29T09:18:23;96199.97;;;8.63;84.76
56668;BME280;42542;48.360;10.958;2023-12-29T09:21:25;96194.03;;;8.69;83.75
56668;BME280;42542;48.360;10.958;2023-12-29T09:24:27;96196.22;;;8.73;84.14
56668;BME280;42542;48.360;10.958;2023-12-29T09:27:29;96198.84;;;8.83;83.54
56668;BME280;42542;48.360;10.958;2023-12-29T09:30:30;96188.41;;;8.89;83.92
56668;BME280;42542;48.360;10.958;2023-12-29T09:33:33;96201.97;;;8.96;83.27
56668;BME280;42542;48.360;10.958;2023-12-29T09:36:34;96207.66;;;9.01;83.93
56668;BME280;42542;48.360;10.958;2023-12-29T09:39:38;96208.59;;;9.10;83.66
56668;BME280;42542;48.360;10.958;2023-12-29T09:42:40;96198.97;;;9.17;83.13
56668;BME280;42542;48.360;10.958;2023-12-29T09:45:45;96190.00;;;9.18;82.95
56668;BME280;42542;48.360;10.958;2023-12-29T09:48:52;96195.41;;;9.26;83.57
56668;BME280;42542;48.360;10.958;2023-12-29T09:51:54;96187.47;;;9.34;83.15
56668;BME280;42542;48.360;10.958;2023-12-29T09:54:59;96189.50;;;9.40;83.29
56668;BME280;42542;48.360;10.958;2023-12-29T09:58:01;96195.06;;;9.47;83.02
56668;BME280;42542;48.360;10.958;2023-12-29T10:01:04;96175.75;;;9.53;82.84
56668;BME280;42542;48.360;10.958;2023-12-29T10:04:07;96174.13;;;9.60;82.49
56668;BME280;42542;48.360;10.958;2023-12-29T10:07:31;96175.03;;;9.68;83.01
56668;BME280;42542;48.360;10.958;2023-12-29T10:10:35;96166.22;;;9.76;82.36
56668;BME280;42542;48.360;10.958;2023-12-29T10:13:38;96169.94;;;9.83;82.62
56668;BME280;42542;48.360;10.958;2023-12-29T10:16:45;96161.28;;;9.89;82.16
56668;BME280;42542;48.360;10.958;2023-12-29T10:20:05;96166.00;;;9.95;81.76
56668;BME280;42542;48.360;10.958;2023-12-29T10:23:17;96172.53;;;10.01;81.92
56668;BME280;42542;48.360;10.958;2023-12-29T10:26:20;96164.03;;;10.05;81.36
56668;BME280;42542;48.360;10.958;2023-12-29T10:29:27;96157.38;;;10.09;81.17
56668;BME280;42542;48.360;10.958;2023-12-29T10:32:29;96165.06;;;10.12;81.28
56668;BME280;42542;48.360;10.958;2023-12-29T10:35:32;96158.59;;;10.15;80.42
56668;BME280;42542;48.360;10.958;2023-12-29T10:38:39;96168.13;;;10.17;80.15
56668;BME280;42542;48.360;10.958;2023-12-29T10:41:44;96163.63;;;10.18;80.29
56668;BME280;42542;48.360;10.958;2023-12-29T10:44:46;96148.78;;;10.24;80.36
56668;BME280;42542;48.360;10.958;2023-12-29T10:47:48;96160.00;;;10.27;80.21
56668;BME280;42542;48.360;10.958;2023-12-29T10:50:50;96160.69;;;10.29;80.82
56668;BME280;42542;48.360;10.958;2023-12-29T10:53:55;96151.47;;;10.32;79.45
56668;BME280;42542;48.360;10.958;2023-12-29T10:57:01;96143.16;;;10.35;79.87
56668;BME280;42542;48.360;10.958;2023-12-29T11:00:04;96137.97;;;10.33;78.74
56668;BME280;42542;48.360;10.958;2023-12-29T11:03:17;96129.47;;;10.38;79.01
56668;BME280;42542;48.360;10.958;2023-12-29T11:06:19;96133.66;;;10.40;79.20
56668;BME280;42542;48.360;10.958;2023-12-29T11:09:32;96128.31;;;10.40;78.58
56668;BME280;42542;48.360;10.958;2023-12-29T11:12:37;96118.31;;;10.42;78.92
56668;BME280;42542;48.360;10.958;2023-12-29T11:15:46;96122.31;;;10.46;78.51
56668;BME280;42542;48.360;10.958;2023-12-29T11:18:49;96126.50;;;10.49;78.32
56668;BME280;42542;48.360;10.958;2023-12-29T11:21:57;96120.00;;;10.51;78.73
56668;BME280;42542;48.360;10.958;2023-12-29T11:25:00;96101.47;;;10.58;78.38
56668;BME280;42542;48.360;10.958;2023-12-29T11:28:03;96099.28;;;10.62;78.70
56668;BME280;42542;48.360;10.958;2023-12-29T11:31:07;96107.63;;;10.67;78.29
56668;BME280;42542;48.360;10.958;2023-12-29T11:34:18;96096.94;;;10.67;77.85
56668;BME280;42542;48.360;10.958;2023-12-29T11:37:40;96098.47;;;10.69;78.08
56668;BME280;42542;48.360;10.958;2023-12-29T11:41:11;96097.47;;;10.70;77.53
56668;BME280;42542;48.360;10.958;2023-12-29T11:44:24;96103.66;;;10.71;76.71
56668;BME280;42542;48.360;10.958;2023-12-29T11:47:37;96101.66;;;10.73;78.10
56668;BME280;42542;48.360;10.958;2023-12-29T11:50:39;96093.44;;;10.74;77.41
56668;BME280;42542;48.360;10.958;2023-12-29T11:53:42;96082.56;;;10.68;77.18
56668;BME280;42542;48.360;10.958;2023-12-29T11:56:44;96083.56;;;10.67;76.99
56668;BME280;42542;48.360;10.958;2023-12-29T11:59:47;96075.75;;;10.65;77.27
56668;BME280;42542;48.360;10.958;2023-12-29T12:02:49;96081.44;;;10.70;77.93
56668;BME280;42542;48.360;10.958;2023-12-29T12:05:54;96084.25;;;10.69;78.31
56668;BME280;42542;48.360;10.958;2023-12-29T12:09:21;96072.88;;;10.67;77.53
56668;BME280;42542;48.360;10.958;2023-12-29T12:12:40;96069.22;;;10.68;77.73
56668;BME280;42542;48.360;10.958;2023-12-29T12:15:42;96075.91;;;10.64;77.47
56668;BME280;42542;48.360;10.958;2023-12-29T12:18:44;96071.88;;;10.68;77.67
56668;BME280;42542;48.360;10.958;2023-12-29T12:21:47;96068.06;;;10.62;77.84
56668;BME280;42542;48.360;10.958;2023-12-29T12:24:57;96075.38;;;10.60;78.22
56668;BME280;42542;48.360;10.958;2023-12-29T12:28:00;96077.56;;;10.56;78.51
56668;BME280;42542;48.360;10.958;2023-12-29T12:31:05;96078.06;;;10.60;78.29
56668;BME280;42542;48.360;10.958;2023-12-29T12:34:08;96065.53;;;10.52;78.55
56668;BME280;42542;48.360;10.958;2023-12-29T12:37:10;96074.91;;;10.56;78.34
56668;BME280;42542;48.360;10.958;2023-12-29T12:40:24;96069.56;;;10.56;78.11
56668;BME280;42542;48.360;10.958;2023-12-29T12:43:28;96076.38;;;10.59;78.49
56668;BME280;42542;48.360;10.958;2023-12-29T12:46:33;96065.69;;;10.59;78.73
56668;BME280;42542;48.360;10.958;2023-12-29T12:49:38;96062.38;;;10.57;79.17
56668;BME280;42542;48.360;10.958;2023-12-29T12:52:40;96061.38;;;10.58;79.59
56668;BME280;42542;48.360;10.958;2023-12-29T12:55:43;96067.56;;;10.59;78.79
56668;BME280;42542;48.360;10.958;2023-12-29T12:58:45;96061.19;;;10.60;79.20
56668;BME280;42542;48.360;10.958;2023-12-29T13:01:48;96067.56;;;10.59;78.54
56668;BME280;42542;48.360;10.958;2023-12-29T13:04:50;96062.84;;;10.61;78.99
56668;BME280;42542;48.360;10.958;2023-12-29T13:07:54;96065.03;;;10.57;79.16
56668;BME280;42542;48.360;10.958;2023-12-29T13:10:57;96065.53;;;10.61;79.35
56668;BME280;42542;48.360;10.958;2023-12-29T13:14:02;96056.53;;;10.62;78.81
56668;BME280;42542;48.360;10.958;2023-12-29T13:17:11;96060.03;;;10.62;78.99
56668;BME280;42542;48.360;10.958;2023-12-29T13:20:13;96069.88;;;10.62;78.67
56668;BME280;42542;48.360;10.958;2023-12-29T13:23:15;96068.88;;;10.63;78.30
56668;BME280;42542;48.360;10.958;2023-12-29T13:26:18;96067.53;;;10.67;78.73
56668;BME280;42542;48.360;10.958;2023-12-29T13:29:21;96059.34;;;10.68;78.55
56668;BME280;42542;48.360;10.958;2023-12-29T13:32:24;96056.84;;;10.67;78.20
56668;BME280;42542;48.360;10.958;2023-12-29T13:35:35;96062.19;;;10.67;77.96
56668;BME280;42542;48.360;10.958;2023-12-29T13:38:48;96054.38;;;10.65;77.54
56668;BME280;42542;48.360;10.958;2023-12-29T13:41:52;96058.34;;;10.69;77.12
56668;BME280;42542;48.360;10.958;2023-12-29T13:44:56;96065.53;;;10.69;76.86
56668;BME280;42542;48.360;10.958;2023-12-29T13:48:01;96053.69;;;10.71;76.21
56668;BME280;42542;48.360;10.958;2023-12-29T13:51:03;96065.38;;;10.70;76.39
56668;BME280;42542;48.360;10.958;2023-12-29T13:54:06;96048.81;;;10.67;75.23
56668;BME280;42542;48.360;10.958;2023-12-29T13:57:08;96052.19;;;10.69;75.39
56668;BME280;42542;48.360;10.958;2023-12-29T14:00:18;96059.53;;;10.67;74.40
56668;BME280;42542;48.360;10.958;2023-12-29T14:03:31;96059.53;;;10.67;74.61
56668;BME280;42542;48.360;10.958;2023-12-29T14:06:42;96047.66;;;10.61;74.30
56668;BME280;42542;48.360;10.958;2023-12-29T14:09:45;96050.50;;;10.60;73.76
56668;BME280;42542;48.360;10.958;2023-12-29T14:12:47;96050.50;;;10.60;73.91
56668;BME280;42542;48.360;10.958;2023-12-29T14:15:49;96056.19;;;10.56;73.06
56668;BME280;42542;48.360;10.958;2023-12-29T14:18:55;96060.03;;;10.54;72.81
56668;BME280;42542;48.360;10.958;2023-12-29T14:21:59;96056.03;;;10.50;73.52
56668;BME280;42542;48.360;10.958;2023-12-29T14:25:02;96054.84;;;10.44;73.30
56668;BME280;42542;48.360;10.958;2023-12-29T14:28:20;96061.84;;;10.45;73.25
56668;BME280;42542;48.360;10.958;2023-12-29T14:31:52;96060.50;;;10.41;73.20
56668;BME280;42542;48.360;10.958;2023-12-29T14:35:52;96066.34;;;10.37;73.08
56668;BME280;42542;48.360;10.958;2023-12-29T14:38:55;96065.00;;;10.33;72.91
56668;BME280;42542;48.360;10.958;2023-12-29T14:41:56;96072.16;;;10.32;73.16
56668;BME280;42542;48.360;10.958;2023-12-29T14:44:58;96069.66;;;10.31;73.83
56668;BME280;42542;48.360;10.958;2023-12-29T14:48:00;96071.84;;;10.27;73.89
56668;BME280;42542;48.360;10.958;2023-12-29T14:51:03;96068.63;;;10.24;73.93
56668;BME280;42542;48.360;10.958;2023-12-29T14:54:06;96077.50;;;10.24;73.93
56668;BME280;42542;48.360;10.958;2023-12-29T14:57:09;96067.81;;;10.23;74.03
56668;BME280;42542;48.360;10.958;2023-12-29T15:00:19;96071.50;;;10.22;74.30
56668;BME280;42542;48.360;10.958;2023-12-29T15:03:21;96074.47;;;10.19;74.64
56668;BME280;42542;48.360;10.958;2023-12-29T15:06:25;96087.00;;;10.18;75.12
56668;BME280;42542;48.360;10.958;2023-12-29T15:09:27;96080.44;;;10.13;74.79
56668;BME280;42542;48.360;10.958;2023-12-29T15:12:29;96076.09;;;10.12;75.18
56668;BME280;42542;48.360;10.958;2023-12-29T15:15:31;96088.28;;;10.06;74.58
56668;BME280;42542;48.360;10.958;2023-12-29T15:18:33;96074.41;;;10.03;75.74
56668;BME280;42542;48.360;10.958;2023-12-29T15:21:35;96073.41;;;10.04;75.43
56668;BME280;42542;48.360;10.958;2023-12-29T15:24:37;96074.41;;;10.03;75.84
56668;BME280;42542;48.360;10.958;2023-12-29T15:27:39;96075.56;;;10.00;75.42
56668;BME280;42542;48.360;10.958;2023-12-29T15:30:41;96081.22;;;9.97;76.11
56668;BME280;42542;48.360;10.958;2023-12-29T15:33:43;96074.72;;;9.92;76.21
56668;BME280;42542;48.360;10.958;2023-12-29T15:36:46;96070.34;;;9.91;76.59
56668;BME280;42542;48.360;10.958;2023-12-29T15:39:48;96069.81;;;9.87;76.41
56668;BME280;42542;48.360;10.958;2023-12-29T15:42:51;96069.19;;;9.85;76.50
56668;BME280;42542;48.360;10.958;2023-12-29T15:45:53;96068.66;;;9.82;77.34
56668;BME280;42542;48.360;10.958;2023-12-29T15:48:55;96077.00;;;9.78;77.14
56668;BME280;42542;48.360;10.958;2023-12-29T15:52:00;96073.94;;;9.73;77.36
56668;BME280;42542;48.360;10.958;2023-12-29T15:55:02;96075.28;;;9.69;78.13
56668;BME280;42542;48.360;10.958;2023-12-29T15:58:05;96071.25;;;9.65;77.92
56668;BME280;42542;48.360;10.958;2023-12-29T16:01:08;96083.94;;;9.63;78.00
56668;BME280;42542;48.360;10.958;2023-12-29T16:04:10;96076.22;;;9.60;78.13
56668;BME280;42542;48.360;10.958;2023-12-29T16:07:12;96076.56;;;9.57;78.64
56668;BME280;42542;48.360;10.958;2023-12-29T16:10:13;96077.84;;;9.53;78.52
56668;BME280;42542;48.360;10.958;2023-12-29T16:13:16;96086.84;;;9.52;78.98